createdAt,value
2022-10-10T00:00:50.186Z,48.86
2022-10-10T00:03:18.211Z,48.97
2022-10-10T00:05:45.279Z,48.75
2022-10-10T00:08:12.070Z,48.86
2022-10-10T00:10:38.732Z,48.86
2022-10-10T00:13:06.288Z,49.00
2022-10-10T00:15:32.879Z,48.98
2022-10-10T00:17:59.462Z,48.86
2022-10-10T00:20:25.967Z,48.87
2022-10-10T00:22:52.838Z,49.72
2022-10-10T00:25:19.614Z,49.36
2022-10-10T00:27:46.488Z,49.17
2022-10-10T00:30:13.067Z,49.54
2022-10-10T00:32:39.572Z,49.38
2022-10-10T00:35:06.869Z,49.96
2022-10-10T00:37:33.364Z,50.25
2022-10-10T00:40:00.070Z,50.37
2022-10-10T00:42:26.634Z,49.91
2022-10-10T00:45:32.164Z,49.74
2022-10-10T00:48:08.727Z,49.62
2022-10-10T00:50:39.599Z,49.45
2022-10-10T00:53:07.079Z,49.98
2022-10-10T00:55:33.943Z,50.22
2022-10-10T00:58:00.646Z,49.77
2022-10-10T01:00:27.135Z,50.31
2022-10-10T01:02:54.050Z,50.65
2022-10-10T01:05:20.746Z,50.95
2022-10-10T01:07:47.323Z,50.79
2022-10-10T01:10:17.293Z,50.81
2022-10-10T01:13:18.845Z,50.36
2022-10-10T01:16:03.736Z,49.69
2022-10-10T01:18:40.210Z,49.85
2022-10-10T01:21:37.902Z,50.31
2022-10-10T01:24:26.262Z,49.93
2022-10-10T01:27:10.292Z,49.63
2022-10-10T01:29:45.911Z,49.85
2022-10-10T01:32:31.071Z,49.59
2022-10-10T01:35:08.932Z,49.89
2022-10-10T01:38:19.232Z,49.89
2022-10-10T01:40:50.745Z,50.73
2022-10-10T01:43:18.354Z,50.79
2022-10-10T01:45:49.683Z,50.42
2022-10-10T01:48:20.376Z,50.61
2022-10-10T01:50:59.947Z,50.98
2022-10-10T01:53:57.710Z,50.43
2022-10-10T01:56:34.224Z,50.84
2022-10-10T01:59:31.938Z,50.34
2022-10-10T02:02:36.146Z,50.40
2022-10-10T02:05:33.770Z,50.39
2022-10-10T02:08:04.714Z,50.66
2022-10-10T02:10:32.853Z,50.74
2022-10-10T02:13:02.070Z,51.10
2022-10-10T02:15:32.792Z,50.80
2022-10-10T02:18:00.499Z,50.51
2022-10-10T02:20:28.181Z,51.72
2022-10-10T02:22:56.309Z,51.74
2022-10-10T02:25:27.473Z,51.58
2022-10-10T02:28:02.824Z,51.54
2022-10-10T02:30:29.610Z,51.70
2022-10-10T02:33:01.286Z,52.79
2022-10-10T02:35:32.715Z,52.37
2022-10-10T02:38:00.318Z,53.61
2022-10-10T02:40:30.651Z,53.31
2022-10-10T02:43:00.066Z,52.25
2022-10-10T02:45:28.639Z,52.75
2022-10-10T02:47:55.305Z,52.18
2022-10-10T02:50:22.656Z,53.89
2022-10-10T02:52:49.499Z,53.48
2022-10-10T02:55:16.153Z,53.03
2022-10-10T02:57:42.887Z,53.55
2022-10-10T03:00:10.019Z,52.51
2022-10-10T03:02:36.915Z,52.64
2022-10-10T03:05:05.785Z,53.74
2022-10-10T03:07:32.648Z,53.21
2022-10-10T03:09:59.198Z,52.51
2022-10-10T03:12:25.794Z,53.46
2022-10-10T03:14:52.268Z,53.05
2022-10-10T03:17:18.747Z,53.86
2022-10-10T03:19:48.167Z,53.66
2022-10-10T03:22:14.693Z,53.03
2022-10-10T03:24:41.228Z,52.52
2022-10-10T03:27:07.814Z,53.05
2022-10-10T03:29:34.383Z,53.29
2022-10-10T03:32:01.003Z,52.97
2022-10-10T03:34:27.609Z,52.35
2022-10-10T03:36:54.317Z,51.98
2022-10-10T03:39:20.773Z,52.89
2022-10-10T03:41:50.406Z,52.60
2022-10-10T03:44:17.486Z,53.14
2022-10-10T03:46:44.070Z,54.10
2022-10-10T03:49:10.950Z,54.54
2022-10-10T03:51:37.516Z,54.40
2022-10-10T03:54:04.323Z,54.64
2022-10-10T03:56:30.880Z,55.50
2022-10-10T03:59:00.651Z,55.31
2022-10-10T04:01:27.868Z,56.27
2022-10-10T04:03:54.397Z,55.49
2022-10-10T04:06:20.924Z,55.74
2022-10-10T04:08:47.629Z,56.00
2022-10-10T04:11:14.478Z,56.46
2022-10-10T04:13:41.251Z,56.17
2022-10-10T04:16:07.723Z,56.72
2022-10-10T04:18:34.243Z,58.99
2022-10-10T04:21:05.067Z,57.81
2022-10-10T04:23:32.020Z,57.32
2022-10-10T04:25:58.631Z,56.59
2022-10-10T04:28:25.150Z,56.25
2022-10-10T04:30:51.988Z,57.28
2022-10-10T04:33:18.453Z,57.18
2022-10-10T04:35:47.842Z,56.32
2022-10-10T04:38:14.369Z,56.43
2022-10-10T04:40:40.886Z,56.38
2022-10-10T04:43:07.473Z,55.36
2022-10-10T04:45:37.330Z,55.50
2022-10-10T04:48:04.164Z,55.59
2022-10-10T04:50:30.782Z,56.33
2022-10-10T04:52:57.246Z,56.89
2022-10-10T04:55:23.971Z,55.84
2022-10-10T04:57:52.841Z,55.78
2022-10-10T05:00:19.569Z,55.66
2022-10-10T05:02:46.154Z,55.00
2022-10-10T05:05:12.606Z,54.82
2022-10-10T05:07:39.183Z,54.50
2022-10-10T05:10:06.937Z,54.78
2022-10-10T05:12:33.678Z,55.49
2022-10-10T05:15:00.183Z,55.80
2022-10-10T05:17:27.331Z,54.69
2022-10-10T05:19:53.805Z,54.24
2022-10-10T05:22:20.462Z,54.77
2022-10-10T05:24:47.013Z,54.70
2022-10-10T05:27:13.625Z,54.95
2022-10-10T05:29:40.153Z,56.35
2022-10-10T05:32:10.342Z,55.27
2022-10-10T05:34:38.242Z,56.06
2022-10-10T05:37:04.742Z,56.36
2022-10-10T05:39:31.414Z,56.16
2022-10-10T05:41:57.917Z,55.98
2022-10-10T05:44:24.641Z,55.76
2022-10-10T05:46:51.715Z,56.51
2022-10-10T05:49:20.403Z,57.96
2022-10-10T05:51:47.811Z,57.00
2022-10-10T05:54:14.320Z,57.53
2022-10-10T05:56:40.883Z,57.69
2022-10-10T05:59:08.511Z,58.80
2022-10-10T06:01:36.515Z,58.09
2022-10-10T06:04:03.178Z,57.79
2022-10-10T06:06:29.689Z,58.14
2022-10-10T06:08:57.598Z,56.92
2022-10-10T06:11:25.919Z,56.25
2022-10-10T06:13:54.309Z,57.30
2022-10-10T06:16:22.109Z,56.15
2022-10-10T06:18:48.629Z,55.68
2022-10-10T06:21:15.413Z,55.24
2022-10-10T06:23:42.433Z,55.33
2022-10-10T06:26:09.243Z,55.31
2022-10-10T06:28:36.012Z,55.43
2022-10-10T06:31:05.838Z,54.95
2022-10-10T06:33:32.961Z,56.47
2022-10-10T06:35:59.436Z,57.93
2022-10-10T06:38:27.609Z,56.95
2022-10-10T06:40:57.434Z,56.67
2022-10-10T06:43:26.495Z,58.18
2022-10-10T06:45:53.029Z,57.70
2022-10-10T06:48:19.834Z,56.75
2022-10-10T06:51:06.508Z,56.96
2022-10-10T06:53:33.419Z,56.02
2022-10-10T06:56:00.637Z,57.95
2022-10-10T06:58:28.801Z,56.63
2022-10-10T07:00:57.923Z,56.87
2022-10-10T07:03:24.586Z,56.65
2022-10-10T07:05:53.319Z,58.21
2022-10-10T07:08:20.687Z,57.70
2022-10-10T07:10:47.565Z,57.42
2022-10-10T07:13:14.569Z,55.51
2022-10-10T07:15:41.180Z,54.70
2022-10-10T07:18:07.683Z,54.42
2022-10-10T07:20:35.427Z,54.92
2022-10-10T07:23:02.602Z,54.46
2022-10-10T07:25:29.199Z,54.07
2022-10-10T07:27:56.930Z,52.37
2022-10-10T07:30:24.680Z,51.51
2022-10-10T07:32:55.441Z,51.44
2022-10-10T07:35:22.753Z,50.42
2022-10-10T07:37:53.692Z,50.41
2022-10-10T07:40:20.179Z,50.57
2022-10-10T07:42:46.759Z,51.31
2022-10-10T07:45:13.322Z,51.24
2022-10-10T07:47:40.571Z,51.09
2022-10-10T07:50:08.009Z,49.53
2022-10-10T07:52:35.460Z,49.17
2022-10-10T07:55:03.377Z,51.03
2022-10-10T07:57:34.749Z,50.42
2022-10-10T08:00:05.593Z,50.77
2022-10-10T08:02:32.106Z,49.51
2022-10-10T08:04:58.571Z,47.16
2022-10-10T08:07:25.280Z,47.64
2022-10-10T08:09:51.991Z,49.06
2022-10-10T08:12:18.979Z,47.98
2022-10-10T08:14:45.503Z,46.44
2022-10-10T08:17:12.031Z,45.83
2022-10-10T08:19:38.518Z,45.77
2022-10-10T08:22:05.137Z,47.33
2022-10-10T08:24:31.654Z,45.37
2022-10-10T08:26:58.144Z,45.96
2022-10-10T08:29:24.978Z,44.49
2022-10-10T08:31:51.557Z,45.54
2022-10-10T08:34:18.489Z,44.91
2022-10-10T08:36:44.975Z,43.53
2022-10-10T08:39:11.614Z,43.84
2022-10-10T08:41:57.960Z,45.57
2022-10-10T08:44:33.404Z,44.33
2022-10-10T08:47:04.249Z,45.50
2022-10-10T08:49:35.008Z,44.67
2022-10-10T08:52:08.541Z,44.71
2022-10-10T08:54:36.726Z,43.64
2022-10-10T08:57:05.734Z,42.64
2022-10-10T08:59:36.392Z,41.88
2022-10-10T09:02:43.693Z,40.66
2022-10-10T09:05:19.866Z,41.16
2022-10-10T09:07:55.826Z,40.35
2022-10-10T09:10:34.582Z,41.47
2022-10-10T09:13:25.655Z,40.02
2022-10-10T09:15:56.740Z,38.57
2022-10-10T09:18:42.282Z,37.78
2022-10-10T09:21:08.803Z,36.85
2022-10-10T09:23:41.191Z,36.86
2022-10-10T09:26:16.527Z,37.21
2022-10-10T09:28:55.528Z,37.06
2022-10-10T09:31:38.918Z,35.35
2022-10-10T09:34:13.167Z,31.02
2022-10-10T09:36:40.308Z,24.70
2022-10-10T09:39:22.140Z,23.07
2022-10-10T09:42:00.665Z,20.94
2022-10-10T09:44:27.853Z,20.54
2022-10-10T09:46:55.258Z,21.47
2022-10-10T09:49:21.903Z,20.63
2022-10-10T09:51:49.213Z,19.45
2022-10-10T09:54:18.582Z,17.16
2022-10-10T09:56:50.163Z,15.34
2022-10-10T09:59:55.563Z,15.13
2022-10-10T10:02:24.955Z,16.88
2022-10-10T10:04:55.288Z,14.43
2022-10-10T10:07:33.229Z,11.13
2022-10-10T10:10:02.155Z,13.32
2022-10-10T10:12:30.872Z,15.34
2022-10-10T10:15:00.869Z,16.79
2022-10-10T10:17:27.482Z,12.78
2022-10-10T10:19:54.005Z,12.11
2022-10-10T10:22:27.157Z,15.21
2022-10-10T10:24:54.229Z,15.15
2022-10-10T10:27:23.314Z,15.29
2022-10-10T10:29:58.112Z,14.49
2022-10-10T10:32:40.349Z,15.24
2022-10-10T10:35:09.776Z,16.26
2022-10-10T10:37:51.712Z,15.81
2022-10-10T10:40:38.456Z,17.77
2022-10-10T10:43:26.979Z,17.73
2022-10-10T10:46:24.818Z,18.85
2022-10-10T10:49:06.637Z,18.30
2022-10-10T10:51:42.286Z,18.51
2022-10-10T10:54:21.552Z,19.08
2022-10-10T10:56:56.433Z,20.97
2022-10-10T11:00:25.737Z,21.45
2022-10-10T11:02:55.391Z,22.95
2022-10-10T11:05:55.261Z,24.08
2022-10-10T11:08:36.933Z,21.41
2022-10-10T11:11:19.875Z,22.10
2022-10-10T11:13:55.547Z,21.15
2022-10-10T11:16:54.180Z,18.36
2022-10-10T11:19:34.191Z,17.50
2022-10-10T11:22:06.085Z,18.47
2022-10-10T11:24:54.033Z,16.91
2022-10-10T11:27:58.854Z,19.73
2022-10-10T11:30:26.758Z,17.95
2022-10-10T11:33:00.106Z,19.33
2022-10-10T11:35:50.569Z,19.66
2022-10-10T11:38:23.567Z,21.35
2022-10-10T11:40:54.196Z,24.80
2022-10-10T11:43:29.829Z,26.31
2022-10-10T11:46:03.463Z,27.52
2022-10-10T11:48:37.697Z,29.13
2022-10-10T11:51:16.401Z,29.30
2022-10-10T11:53:44.694Z,29.33
2022-10-10T11:56:46.737Z,28.08
2022-10-10T11:59:21.911Z,28.42
2022-10-10T12:01:52.443Z,30.08
2022-10-10T12:04:19.030Z,30.70
2022-10-10T12:06:52.895Z,31.21
2022-10-10T12:09:30.305Z,30.49
2022-10-10T12:12:00.641Z,32.62
2022-10-10T12:14:31.249Z,31.38
2022-10-10T12:16:58.553Z,33.96
2022-10-10T12:19:27.119Z,32.50
2022-10-10T12:21:56.726Z,33.94
2022-10-10T12:24:25.046Z,33.81
2022-10-10T12:26:54.478Z,33.51
2022-10-10T12:29:41.086Z,34.77
2022-10-10T12:32:13.733Z,34.46
2022-10-10T12:34:43.445Z,34.91
2022-10-10T12:37:31.670Z,33.85
2022-10-10T12:40:07.749Z,34.56
2022-10-10T12:42:38.246Z,36.33
2022-10-10T12:45:34.051Z,35.91
2022-10-10T12:48:06.748Z,35.73
2022-10-10T12:50:43.837Z,36.06
2022-10-10T12:53:18.495Z,35.88
2022-10-10T12:55:47.559Z,36.93
2022-10-10T12:58:26.141Z,37.87
2022-10-10T13:00:55.437Z,39.26
2022-10-10T13:03:36.695Z,37.22
2022-10-10T13:06:29.606Z,37.54
2022-10-10T13:08:56.596Z,38.17
2022-10-10T13:11:23.228Z,39.05
2022-10-10T13:13:52.503Z,38.06
2022-10-10T13:16:22.153Z,37.48
2022-10-10T13:18:49.783Z,37.73
2022-10-10T13:21:21.218Z,36.17
2022-10-10T13:26:44.226Z,37.67
2022-10-10T13:29:33.504Z,38.45
2022-10-10T13:32:03.255Z,37.78
2022-10-10T13:34:33.137Z,38.51
2022-10-10T13:37:01.942Z,37.52
2022-10-10T13:39:30.212Z,36.66
2022-10-10T13:41:57.293Z,37.83
2022-10-10T13:44:46.929Z,37.24
2022-10-10T13:47:38.327Z,36.72
2022-10-10T13:50:22.214Z,36.54
2022-10-10T13:52:48.732Z,37.76
2022-10-10T13:55:25.024Z,38.02
2022-10-10T13:57:55.385Z,40.68
2022-10-10T14:00:24.962Z,41.84
2022-10-10T14:02:51.911Z,41.23
2022-10-10T14:05:31.649Z,42.18
2022-10-10T14:07:58.457Z,40.83
2022-10-10T14:10:27.856Z,39.74
2022-10-10T14:12:58.742Z,39.76
2022-10-10T14:15:36.170Z,38.86
2022-10-10T14:18:05.974Z,40.35
2022-10-10T14:20:32.517Z,38.72
2022-10-10T14:23:01.490Z,38.28
2022-10-10T14:25:29.082Z,38.75
2022-10-10T14:27:55.540Z,38.19
2022-10-10T14:30:22.595Z,40.12
2022-10-10T14:32:49.163Z,41.72
2022-10-10T14:35:15.688Z,41.82
2022-10-10T14:37:42.210Z,41.42
2022-10-10T14:40:21.127Z,42.46
2022-10-10T14:42:48.429Z,43.24
2022-10-10T14:45:16.761Z,41.92
2022-10-10T14:47:43.493Z,41.94
2022-10-10T14:50:18.830Z,41.18
2022-10-10T14:52:45.436Z,41.61
2022-10-10T14:55:12.724Z,41.63
2022-10-10T14:57:39.401Z,42.51
2022-10-10T15:00:08.036Z,41.60
2022-10-10T15:02:35.007Z,41.57
2022-10-10T15:05:01.549Z,40.83
2022-10-10T15:07:28.446Z,39.25
2022-10-10T15:12:44.064Z,39.54
2022-10-10T15:15:12.215Z,41.22
2022-10-10T15:17:39.054Z,41.45
2022-10-10T15:20:07.660Z,41.13
2022-10-10T15:22:35.006Z,41.19
2022-10-10T15:25:01.671Z,42.31
2022-10-10T15:27:28.308Z,41.18
2022-10-10T15:29:55.196Z,40.63
2022-10-10T15:32:21.805Z,42.24
2022-10-10T15:34:49.139Z,42.30
2022-10-10T15:37:15.726Z,41.46
2022-10-10T15:39:44.622Z,41.05
2022-10-10T15:42:17.282Z,40.53
2022-10-10T15:44:48.159Z,41.15
2022-10-10T15:47:15.909Z,41.99
2022-10-10T15:49:42.523Z,41.54
2022-10-10T15:52:09.643Z,41.83
2022-10-10T15:54:36.395Z,42.42
2022-10-10T15:57:03.001Z,42.57
2022-10-10T15:59:30.180Z,43.78
2022-10-10T16:01:56.851Z,42.71
2022-10-10T16:04:23.614Z,42.61
2022-10-10T16:06:59.305Z,43.78
2022-10-10T16:09:35.348Z,44.54
2022-10-10T16:12:02.310Z,45.72
2022-10-10T16:14:29.003Z,43.20
2022-10-10T16:16:59.175Z,41.89
2022-10-10T16:19:25.665Z,44.16
2022-10-10T16:21:52.145Z,45.30
2022-10-10T16:24:18.894Z,46.18
2022-10-10T16:26:45.379Z,45.39
2022-10-10T16:29:12.491Z,45.58
2022-10-10T16:31:39.887Z,46.42
2022-10-10T16:34:07.356Z,44.87
2022-10-10T16:36:35.435Z,45.72
2022-10-10T16:39:01.958Z,45.91
2022-10-10T16:41:47.053Z,45.80
2022-10-10T16:44:15.132Z,48.27
2022-10-10T16:46:41.959Z,47.76
2022-10-10T16:49:09.888Z,49.67
2022-10-10T16:51:37.140Z,50.84
2022-10-10T16:54:05.299Z,50.71
2022-10-10T16:56:31.862Z,52.24
2022-10-10T16:58:59.556Z,55.97
2022-10-10T17:01:26.499Z,55.84
2022-10-10T17:03:53.130Z,56.40
2022-10-10T17:06:22.236Z,59.13
2022-10-10T17:08:50.844Z,58.85
2022-10-10T17:11:20.462Z,61.58
2022-10-10T17:13:47.680Z,62.70
2022-10-10T17:19:04.075Z,64.97
2022-10-10T17:21:31.512Z,64.53
2022-10-10T17:23:58.390Z,64.82
2022-10-10T17:26:26.247Z,66.08
2022-10-10T17:28:57.418Z,66.64
2022-10-10T17:31:25.216Z,67.21
2022-10-10T17:33:54.284Z,66.69
2022-10-10T17:36:24.282Z,66.47
2022-10-10T17:38:51.565Z,66.24
2022-10-10T17:41:19.196Z,66.55
2022-10-10T17:43:46.251Z,67.31
2022-10-10T17:46:33.828Z,67.21
2022-10-10T17:49:05.405Z,67.04
2022-10-10T17:51:32.346Z,67.42
2022-10-10T17:53:59.842Z,67.35
2022-10-10T17:56:26.465Z,68.30
2022-10-10T17:58:52.944Z,68.70
2022-10-10T18:01:20.124Z,69.36
2022-10-10T18:03:47.163Z,70.26
2022-10-10T18:06:17.167Z,69.09
2022-10-10T18:08:46.768Z,66.91
2022-10-10T18:11:14.663Z,66.45
2022-10-10T18:13:41.655Z,65.38
2022-10-10T18:16:13.468Z,65.92
2022-10-10T18:18:41.077Z,64.36
2022-10-10T18:21:09.306Z,64.35
2022-10-10T18:23:36.769Z,64.11
2022-10-10T18:26:10.276Z,62.73
2022-10-10T18:28:39.878Z,62.28
2022-10-10T18:31:13.545Z,62.00
2022-10-10T18:33:47.037Z,60.72
2022-10-10T18:36:16.893Z,60.24
2022-10-10T18:38:43.379Z,59.84
2022-10-10T18:41:18.703Z,59.17
2022-10-10T18:43:45.857Z,59.98
2022-10-10T18:46:14.559Z,60.33
2022-10-10T18:48:41.611Z,60.90
2022-10-10T18:51:12.750Z,60.47
2022-10-10T18:53:41.791Z,61.48
2022-10-10T18:56:09.274Z,62.04
2022-10-10T18:58:36.425Z,61.56
2022-10-10T19:01:08.781Z,62.44
2022-10-10T19:03:36.975Z,61.36
2022-10-10T19:06:05.722Z,61.43
2022-10-10T19:08:33.084Z,61.28
2022-10-10T19:11:00.758Z,62.49
2022-10-10T19:13:27.913Z,62.14
2022-10-10T19:15:54.449Z,61.46
2022-10-10T19:18:21.984Z,60.77
2022-10-10T19:20:48.718Z,60.35
2022-10-10T19:23:15.586Z,59.35
2022-10-10T19:25:43.831Z,59.24
2022-10-10T19:28:10.382Z,58.91
2022-10-10T19:30:42.412Z,58.78
2022-10-10T19:33:09.983Z,58.23
2022-10-10T19:35:41.847Z,57.35
2022-10-10T19:38:10.170Z,57.92
2022-10-10T19:40:43.527Z,57.21
2022-10-10T19:43:10.162Z,56.40
2022-10-10T19:45:41.659Z,56.82
2022-10-10T19:48:08.525Z,56.66
2022-10-10T19:50:39.058Z,56.94
2022-10-10T19:53:06.394Z,56.47
2022-10-10T19:55:33.354Z,55.80
2022-10-10T19:57:59.900Z,56.75
2022-10-10T20:00:26.484Z,57.33
2022-10-10T20:02:52.960Z,57.63
2022-10-10T20:05:20.461Z,57.21
2022-10-10T20:07:50.080Z,56.31
2022-10-10T20:10:17.660Z,57.28
2022-10-10T20:12:47.443Z,57.54
2022-10-10T20:15:14.028Z,56.71
2022-10-10T20:17:40.774Z,56.19
2022-10-10T20:20:07.758Z,56.05
2022-10-10T20:22:34.569Z,56.12
2022-10-10T20:25:01.315Z,56.10
2022-10-10T20:27:31.314Z,57.02
2022-10-10T20:29:58.666Z,56.25
2022-10-10T20:32:25.344Z,56.15
2022-10-10T20:34:52.067Z,56.11
2022-10-10T20:37:18.784Z,55.67
2022-10-10T20:39:45.268Z,55.95
2022-10-10T20:42:11.706Z,57.28
2022-10-10T20:44:38.297Z,56.84
2022-10-10T20:47:07.250Z,56.31
2022-10-10T20:49:33.929Z,56.73
2022-10-10T20:52:00.439Z,56.65
2022-10-10T20:54:26.996Z,56.54
2022-10-10T20:56:53.473Z,57.04
2022-10-10T20:59:21.347Z,56.71
2022-10-10T21:01:47.917Z,57.30
2022-10-10T21:04:14.813Z,56.68
2022-10-10T21:06:45.175Z,56.76
2022-10-10T21:09:13.641Z,57.29
2022-10-10T21:11:40.570Z,56.70
2022-10-10T21:14:07.334Z,57.39
2022-10-10T21:16:39.073Z,57.55
2022-10-10T21:19:09.019Z,57.52
2022-10-10T21:21:36.541Z,58.09
2022-10-10T21:24:05.333Z,58.27
2022-10-10T21:26:32.352Z,58.04
2022-10-10T21:28:59.166Z,58.22
2022-10-10T21:31:28.313Z,57.63
2022-10-10T21:33:55.526Z,57.58
2022-10-10T21:36:23.745Z,57.19
2022-10-10T21:38:50.372Z,57.25
2022-10-10T21:41:19.466Z,56.97
2022-10-10T21:43:48.125Z,56.42
2022-10-10T21:46:19.635Z,55.83
2022-10-10T21:48:46.219Z,56.32
2022-10-10T21:51:13.344Z,56.67
2022-10-10T21:53:40.113Z,57.35
2022-10-10T21:56:08.568Z,56.44
2022-10-10T21:58:37.518Z,56.47
2022-10-10T22:01:08.388Z,56.17
2022-10-10T22:03:34.970Z,56.02
2022-10-10T22:06:06.306Z,56.24
2022-10-10T22:08:33.361Z,55.65
2022-10-10T22:11:04.347Z,55.38
2022-10-10T22:13:30.881Z,55.41
2022-10-10T22:15:57.674Z,55.59
2022-10-10T22:18:24.851Z,55.52
2022-10-10T22:20:51.860Z,55.78
2022-10-10T22:23:20.237Z,55.57
2022-10-10T22:25:48.674Z,55.84
2022-10-10T22:28:16.221Z,56.00
2022-10-10T22:30:43.142Z,55.46
2022-10-10T22:33:09.690Z,55.56
2022-10-10T22:35:36.852Z,55.37
2022-10-10T22:38:04.129Z,55.45
2022-10-10T22:40:30.660Z,54.94
2022-10-10T22:42:57.665Z,55.22
2022-10-10T22:45:24.402Z,55.32
2022-10-10T22:47:51.735Z,55.44
2022-10-10T22:50:18.462Z,55.23
2022-10-10T22:52:45.112Z,55.10
2022-10-10T22:55:17.233Z,54.80
2022-10-10T22:57:44.965Z,54.81
2022-10-10T23:00:12.325Z,54.59
2022-10-10T23:02:38.827Z,55.03
2022-10-10T23:05:06.138Z,55.24
2022-10-10T23:07:32.990Z,55.25
2022-10-10T23:09:59.499Z,55.24
2022-10-10T23:12:26.106Z,55.02
2022-10-10T23:14:52.582Z,54.97
2022-10-10T23:17:19.102Z,54.72
2022-10-10T23:19:45.566Z,54.80
2022-10-10T23:22:15.144Z,55.14
2022-10-10T23:24:41.877Z,55.78
2022-10-10T23:27:08.362Z,55.90
2022-10-10T23:29:35.308Z,56.40
2022-10-10T23:32:02.018Z,57.36
2022-10-10T23:34:28.527Z,56.97
2022-10-10T23:36:55.072Z,57.01
2022-10-10T23:39:21.543Z,56.56
2022-10-10T23:41:48.070Z,57.14
2022-10-10T23:44:14.559Z,57.00
2022-10-10T23:46:41.201Z,56.93
2022-10-10T23:49:07.699Z,57.30
2022-10-10T23:51:34.187Z,57.62
2022-10-10T23:54:00.715Z,57.03
2022-10-10T23:56:27.219Z,56.98
2022-10-10T23:58:53.871Z,56.72
